Date,TemperatureHighF,TemperatureAvgF,TemperatureLowF,DewpointHighF,DewpointAvgF,DewpointLowF,HumidityHigh,HumidityAvg,HumidityLow,PressureMaxIn,PressureMinIn,WindSpeedMaxMPH,WindSpeedAvgMPH,GustSpeedMaxMPH,PrecipitationSumIn
2013-1-7,36.0,18.7,5.7,12.9,2.9,-99.9,74,56,33,29.90,29.85,4,-23,0,0.01
2013-1-8,39.6,16.4,0.1,12.4,3.8,-6.3,76,60,31,30.19,29.87,8,2,0,0.00
2013-1-9,42.4,19.4,4.6,17.7,6.6,-1.5,76,60,28,30.35,30.08,5,2,0,0.00
2013-1-10,44.8,21.4,3.7,17.4,8.9,-2.4,78,61,32,30.08,29.59,5,2,0,0.00
2013-1-11,36.1,21.1,-2.2,21.9,5.7,-11.7,82,52,33,29.73,29.39,35,12,0,0.16
2013-1-12,24.1,4.2,-12.1,-4.3,-10.6,-20.5,69,52,25,29.75,29.62,8,2,0,0.00
2013-1-13,24.3,6.7,-6.5,-0.7,-7.9,-15.9,66,52,32,29.84,29.72,10,3,0,0.00
2013-1-14,24.1,9.9,-2.0,11.4,-0.2,-12.6,78,64,49,29.85,29.71,7,2,0,0.00
2013-1-15,18.3,6.6,-3.3,-0.5,-5.5,-11.5,76,58,35,30.16,29.83,6,3,0,0.00
2013-1-16,35.6,13.4,-5.4,12.4,0.3,-12.9,74,57,35,30.32,30.15,5,2,0,0.00
2013-1-17,44.4,19.5,3.0,19.8,7.8,-3.1,78,62,35,30.44,30.29,5,2,0,0.00
2013-1-18,42.6,19.0,3.2,19.7,8.4,-2.9,84,65,39,30.33,30.15,5,1,0,0.00
2013-1-19,42.8,19.1,2.8,16.4,7.3,-3.3,81,62,32,30.30,30.19,5,2,0,0.00
2013-1-20,39.2,17.4,1.0,15.1,5.2,-5.3,77,61,34,30.27,30.09,5,1,0,0.00
2013-1-21,44.1,21.3,3.0,13.1,6.4,-3.1,77,56,25,30.24,30.12,5,2,0,0.00
2013-1-22,49.5,23.4,5.5,15.9,7.6,-0.7,78,55,19,30.27,30.17,4,1,0,0.00
2013-1-23,48.7,25.0,6.3,14.9,7.3,-1.4,74,51,18,30.36,30.22,4,2,0,0.00
2013-1-24,55.9,31.0,9.5,25.7,14.9,2.5,74,54,24,30.27,30.09,16,3,0,0.00
2013-1-25,52.7,37.2,28.4,36.2,27.8,20.2,84,69,53,30.25,30.09,7,3,0,0.00
2013-1-26,43.9,35.7,26.8,39.1,31.4,23.5,91,85,69,30.13,29.81,29,3,0,0.41
2013-1-27,50.9,39.0,31.1,37.1,32.7,26.6,91,79,56,29.88,29.80,17,5,0,0.01
2013-1-28,49.1,35.9,26.4,33.2,29.2,22.8,89,78,53,29.83,29.59,27,5,0,0.00
2013-1-29,29.3,20.8,7.7,22.5,15.0,1.2,87,78,59,29.75,29.44,9,2,0,0.00
2013-1-30,39.6,17.3,-3.6,19.7,6.6,-11.2,75,63,39,30.03,29.76,14,4,0,0.00
2013-1-31,50.9,29.4,14.0,28.0,17.9,9.3,82,64,39,30.17,30.03,9,3,0,0.37
2013-2-1,49.5,29.4,14.4,24.3,16.9,8.8,78,62,35,30.20,30.05,11,4,0,0.00
2013-2-2,49.3,30.0,15.1,23.5,15.1,7.7,83,58,19,30.32,30.20,6,2,0,0.00
2013-2-3,47.3,30.9,18.1,22.3,16.5,9.2,71,56,35,30.25,29.90,7,2,0,0.00
2013-2-4,49.5,33.4,19.2,24.0,18.5,12.9,79,57,27,30.02,29.87,9,3,0,0.00
2013-2-5,55.0,34.2,18.1,22.4,17.7,12.9,80,54,22,30.03,29.89,7,3,0,0.00
2013-2-6,54.1,36.6,21.2,27.3,20.7,13.5,72,54,31,29.92,29.75,12,4,0,0.00
2013-2-7,51.4,36.0,25.0,26.9,21.1,17.9,78,57,28,30.06,29.88,9,3,0,0.00
2013-2-8,48.2,34.9,22.5,26.9,20.4,14.4,76,57,38,30.06,29.68,14,4,0,0.00
2013-2-9,43.9,29.5,21.2,21.8,15.6,4.0,81,58,20,29.66,29.41,26,10,0,0.00
2013-2-10,37.2,25.1,19.0,19.4,13.2,7.8,73,61,41,29.81,29.57,20,8,0,0.00
2013-2-11,34.3,25.6,16.9,18.1,12.6,7.2,82,59,35,29.85,29.75,21,6,0,0.00
2013-2-12,36.9,22.1,12.0,14.6,7.2,1.3,83,56,24,30.00,29.81,13,4,0,0.02
2013-2-13,43.3,23.4,6.3,16.4,8.4,-1.7,74,54,32,30.03,29.88,9,4,0,0.00
2013-2-14,48.7,27.8,11.5,20.4,11.8,5.7,77,54,25,30.08,29.92,19,4,0,0.00
2013-2-15,43.3,29.0,17.2,22.1,10.0,1.8,73,49,20,30.26,30.08,24,6,0,0.00
2013-2-16,51.4,29.9,11.3,12.9,7.8,0.7,65,43,17,30.31,30.06,12,4,0,0.00
2013-2-17,57.6,34.3,14.7,16.7,6.4,-14.1,69,38,5,30.06,29.59,19,5,0,0.00
2013-2-18,45.0,32.3,20.7,12.3,5.9,-2.6,51,35,14,30.01,29.63,18,7,0,0.00
2013-2-19,57.4,33.5,10.0,24.9,6.4,-5.3,72,36,13,30.00,29.64,21,6,0,0.00
2013-2-20,49.3,30.7,17.6,31.1,23.2,13.1,88,75,39,29.64,29.35,22,5,0,0.21
2013-2-21,37.6,27.4,15.1,25.8,18.9,10.6,83,71,57,29.70,29.39,24,6,0,0.02
2013-2-22,37.2,27.5,21.7,24.8,18.6,12.8,83,70,50,29.83,29.68,19,6,0,0.00
2013-2-23,44.4,28.3,10.4,19.8,13.6,4.4,79,56,29,29.88,29.54,18,4,0,0.00
2013-2-24,39.4,30.0,24.4,21.2,13.8,6.5,81,52,32,29.67,29.45,25,7,0,0.01
2013-2-25,43.0,28.0,14.5,11.2,7.7,3.6,64,45,20,29.87,29.68,19,7,0,0.00
2013-2-26,39.0,26.4,13.6,17.0,7.7,-3.4,81,48,20,29.92,29.59,26,10,0,0.00
2013-2-27,41.7,23.5,6.8,15.0,5.2,-1.1,78,50,18,30.12,29.92,9,4,0,0.00
2013-2-28,45.9,25.6,6.8,9.9,3.2,-3.8,62,42,13,30.20,30.07,15,4,0,0.00
2013-3-1,51.8,32.6,14.5,19.4,12.9,4.2,64,46,26,30.29,30.15,19,6,0,0.00
2013-3-2,61.9,39.1,19.9,22.8,17.8,11.4,70,47,19,30.35,30.14,9,4,0,0.00
2013-3-3,61.9,43.7,27.7,27.6,19.7,13.0,70,42,19,30.14,29.78,20,6,0,0.00
2013-3-4,53.6,42.4,32.0,27.6,22.6,18.1,60,46,31,30.04,29.70,22,8,0,0.00
2013-3-5,59.5,37.6,17.8,20.2,8.7,-11.5,71,38,5,30.22,30.04,12,4,0,0.00
2013-3-6,63.0,42.1,23.0,25.1,19.3,10.4,64,43,22,30.13,29.88,17,5,0,0.00
2013-3-7,66.6,46.1,25.5,28.2,16.4,-1.0,70,37,8,30.02,29.86,17,6,0,0.00
2013-3-8,59.7,40.8,27.1,31.7,22.9,16.2,90,54,19,29.92,29.62,24,5,0,0.00
2013-3-9,35.4,28.0,22.6,29.4,22.4,18.2,90,80,56,29.83,29.60,18,5,0,0.01
2013-3-10,45.9,30.1,18.3,25.3,18.8,13.2,88,65,40,30.05,29.83,16,4,0,0.08
2013-3-11,54.9,33.6,15.1,29.3,19.7,9.2,77,59,32,30.09,29.89,16,5,0,0.17
2013-3-12,61.2,40.5,23.9,29.1,23.6,17.8,80,55,26,30.20,30.01,11,4,0,0.00
2013-3-13,64.6,44.2,25.9,31.4,25.0,20.1,79,51,21,30.31,30.18,11,5,0,0.00
2013-3-14,71.1,47.4,28.4,28.8,22.8,18.1,72,44,14,30.35,30.18,14,4,0,0.00
2013-3-15,74.1,50.3,30.2,27.4,19.4,8.0,63,36,8,30.22,29.94,22,6,0,0.00
2013-3-16,64.0,48.0,35.6,36.1,25.6,20.6,84,44,21,29.94,29.73,23,6,0,0.10
2013-3-17,60.1,43.3,30.9,37.6,26.2,6.6,90,59,16,29.83,29.57,31,9,0,0.04
2013-3-18,58.5,41.4,26.4,21.7,12.0,0.6,63,35,11,29.94,29.77,29,9,0,0.00
2013-3-19,52.7,39.0,24.1,20.6,13.3,6.1,56,37,18,30.12,29.93,15,4,0,0.00
2013-3-20,58.5,41.6,21.7,26.0,20.1,13.5,71,45,22,30.17,29.81,18,5,0,0.00
2013-3-21,62.1,48.5,34.7,30.1,21.2,10.8,54,37,14,29.80,29.51,34,12,0,0.03
2013-3-22,55.0,39.8,21.2,21.8,13.3,4.9,64,37,15,29.71,29.53,34,8,0,0.00
2013-3-23,37.2,27.3,13.6,15.1,4.8,-16.5,66,40,10,29.94,29.57,34,9,0,0.00
2013-3-24,44.2,25.8,5.4,13.4,1.6,-2.7,76,42,14,29.96,29.75,29,7,0,0.00
2013-3-25,48.4,28.7,9.5,9.7,2.6,-6.2,69,38,12,30.08,29.94,13,3,0,0.00
2013-3-26,62.2,40.3,18.7,16.5,10.9,4.5,55,32,16,30.09,29.88,20,6,0,0.00
2013-3-27,67.3,49.2,31.8,24.0,13.4,0.3,48,28,7,30.02,29.90,17,7,0,0.00
2013-3-28,67.3,49.5,30.9,22.1,13.4,4.5,49,27,9,30.09,29.97,19,7,0,0.00
2013-3-29,68.9,46.3,28.9,32.3,20.0,12.4,63,38,17,30.16,30.02,15,4,0,0.01
2013-3-30,70.3,49.4,26.6,31.9,22.5,16.1,76,41,14,30.17,29.93,21,5,0,0.00
2013-3-31,69.4,53.5,37.8,33.9,26.6,15.2,66,39,16,30.08,29.89,25,10,0,0.01
2013-4-1,68.2,52.2,34.9,30.8,19.4,2.8,53,31,8,30.01,29.81,21,7,0,0.00
2013-4-2,63.7,47.3,34.0,25.5,17.7,-2.0,54,34,7,29.91,29.72,23,7,0,0.00
2013-4-3,58.1,43.3,32.4,31.3,26.4,22.3,72,53,25,30.11,29.92,19,5,0,0.00
2013-4-4,70.7,48.3,25.5,30.1,19.7,7.7,77,41,10,30.19,30.02,12,4,0,0.00
2013-4-5,70.5,54.8,34.9,25.1,18.4,12.9,48,27,11,30.08,29.78,28,9,0,0.02
2013-4-6,69.4,52.5,35.1,32.1,24.1,19.3,62,35,17,29.96,29.78,16,6,0,0.00
2013-4-7,71.4,54.7,39.2,31.3,21.6,13.1,57,31,13,29.87,29.69,29,8,0,0.00
2013-4-8,69.8,53.4,34.0,29.2,20.9,13.9,54,31,13,29.71,29.31,30,8,0,0.03
2013-4-9,50.7,40.1,31.6,31.9,25.1,15.2,85,57,27,29.72,29.31,26,8,0,0.02
2013-4-10,43.0,34.6,29.7,28.4,23.9,18.5,88,67,43,29.82,29.69,19,8,0,0.00
2013-4-11,60.8,39.4,18.5,35.1,22.9,13.4,82,56,22,29.83,29.68,22,6,0,0.01
2013-4-12,64.2,46.2,31.6,37.0,26.4,15.7,89,53,17,29.89,29.75,19,5,0,0.00
2013-4-13,66.6,51.6,27.7,30.9,18.7,12.6,69,32,14,29.89,29.54,27,10,0,0.00
2013-4-14,63.0,53.1,44.6,28.1,24.9,20.9,47,34,23,29.60,29.51,32,14,0,0.02
2013-4-15,68.9,53.7,36.0,30.1,22.3,14.8,57,33,13,29.67,29.51,25,10,0,0.00
2013-4-16,73.0,58.2,39.4,23.6,16.5,4.4,40,21,10,29.75,29.55,29,13,0,0.00
2013-4-17,56.3,40.8,27.5,32.5,20.5,4.0,87,51,12,29.79,29.54,23,6,0,0.00
2013-4-18,36.9,27.8,19.8,20.5,15.6,7.2,77,61,41,30.09,29.78,14,5,0,0.01
2013-4-19,58.3,36.5,10.0,13.4,6.5,1.3,69,35,12,30.18,29.89,19,6,0,0.00
2013-4-20,58.1,45.5,36.0,30.4,19.4,7.8,56,36,25,29.97,29.79,18,5,0,0.00
2013-4-21,68.4,47.3,26.8,29.1,16.5,0.2,72,37,8,30.09,29.90,23,6,0,0.00
2013-4-22,74.3,55.2,32.4,26.8,16.4,11.3,49,25,10,29.99,29.73,29,10,0,0.01
2013-4-23,58.8,47.4,31.8,34.9,18.8,-44.5,73,37,1,30.01,29.73,31,10,0,0.00
2013-4-24,65.3,44.1,18.9,20.7,6.5,-12.0,58,29,4,30.11,29.95,22,6,0,0.00
2013-4-25,67.3,50.3,40.8,39.0,26.4,18.3,82,42,21,30.11,29.85,22,8,0,0.04
2013-4-26,69.6,50.6,39.0,42.3,34.1,25.0,90,58,20,30.23,29.99,19,6,0,0.03
2013-4-27,73.8,53.3,29.1,33.7,24.7,17.9,78,39,14,30.25,30.03,17,4,0,0.00
2013-4-28,77.9,56.6,31.1,25.9,12.0,-19.7,55,25,2,30.10,29.84,15,5,0,0.00
2013-4-29,81.9,60.0,35.2,25.1,15.8,6.8,46,21,7,29.94,29.70,26,7,0,0.00
2013-4-30,82.2,62.5,38.3,27.4,15.6,5.3,45,20,7,29.85,29.68,26,9,0,0.00
2013-5-1,75.7,59.5,37.9,30.9,20.2,10.7,53,24,14,30.18,29.77,28,12,0,0.03
2013-5-2,59.5,41.9,27.0,15.6,6.8,-27.4,53,28,3,30.41,30.20,21,8,0,0.00
2013-5-3,69.3,46.3,21.0,16.6,7.0,-6.2,54,26,5,30.34,29.93,16,5,0,0.00
2013-5-4,75.2,54.4,37.8,15.7,9.2,-8.6,32,18,4,30.03,29.83,23,12,0,0.00
2013-5-5,68.2,55.1,38.7,33.6,20.4,11.5,53,27,16,30.12,29.96,20,10,0,0.00
2013-5-6,60.4,48.2,39.9,42.7,33.8,21.6,85,59,37,30.05,29.94,20,6,0,0.27
2013-5-7,72.1,52.5,33.1,45.9,33.7,24.7,89,55,19,30.02,29.85,19,5,0,0.00
2013-5-8,66.9,51.7,35.2,41.7,26.5,14.8,82,44,16,30.00,29.87,22,7,0,0.00
2013-5-9,68.2,48.7,30.2,37.2,26.9,17.6,67,45,16,30.10,29.97,20,6,0,0.00
2013-5-10,66.4,52.2,36.7,36.9,31.6,28.1,71,47,25,30.27,30.06,23,7,0,0.00
2013-5-11,70.3,51.6,34.0,37.6,31.6,26.6,77,50,22,30.34,30.23,21,6,0,0.00
2013-5-12,77.4,57.5,34.0,40.0,32.1,26.9,77,42,17,30.35,30.13,17,5,0,0.00
2013-5-13,83.8,61.4,39.6,37.9,32.1,26.9,62,37,14,30.31,30.13,17,4,0,0.00
2013-5-14,84.6,60.9,39.4,40.9,34.4,26.3,69,41,13,30.17,29.97,17,5,0,0.01
2013-5-15,81.1,59.0,43.7,46.5,40.6,35.3,72,53,25,30.04,29.89,17,6,0,0.01
2013-5-16,81.9,62.6,40.5,39.5,25.6,12.8,79,34,8,30.04,29.83,18,7,0,0.00
2013-5-17,82.6,64.7,42.6,27.9,15.6,3.2,40,19,5,30.05,29.86,18,8,0,0.00
2013-5-18,74.8,58.5,42.8,32.1,22.8,11.1,47,26,12,30.02,29.83,23,6,0,0.00
2013-5-19,69.6,54.8,45.3,33.4,27.3,13.8,54,37,14,29.90,29.75,27,8,0,0.00
2013-5-20,71.1,51.2,39.2,37.5,29.4,22.6,63,46,19,29.98,29.85,28,5,0,0.00
2013-5-21,74.3,55.7,34.3,36.9,26.0,18.3,71,38,13,30.04,29.81,24,7,0,0.00
2013-5-22,82.2,64.5,38.8,29.5,18.6,9.2,49,21,7,29.95,29.80,30,6,0,0.00
2013-5-23,85.5,69.3,47.1,43.6,18.2,-27.9,49,19,1,30.01,29.86,23,9,0,0.00
2013-5-24,83.3,69.9,55.9,47.9,33.2,8.9,63,33,7,30.11,29.93,27,10,0,0.00
2013-5-25,85.3,70.3,51.1,47.5,25.8,3.8,63,26,5,30.11,29.90,22,7,0,0.00
2013-5-26,84.7,66.4,45.9,29.5,11.2,-30.5,40,17,1,30.09,29.89,19,7,0,0.00
2013-5-27,78.1,61.7,40.5,21.3,8.8,-4.4,31,14,5,30.02,29.82,22,8,0,0.00
2013-5-28,82.2,63.7,43.2,23.2,3.4,-31.5,28,13,1,29.88,29.63,23,7,0,0.00
2013-5-29,72.0,59.9,43.5,38.0,20.1,9.1,47,23,11,29.74,29.60,27,10,0,0.00
2013-5-30,77.7,59.9,41.7,27.6,17.6,4.5,41,22,6,29.89,29.74,33,10,0,0.01
2013-5-31,79.2,62.3,40.5,30.2,9.2,-35.6,38,17,1,30.04,29.85,33,11,0,0.01
2013-6-1,86.0,62.2,34.0,27.2,0.6,-34.3,37,16,1,30.15,30.00,17,5,0,0.00
2013-6-2,84.9,66.2,45.0,39.2,30.6,25.9,48,29,13,30.19,29.91,18,7,0,0.00
2013-6-3,86.0,67.5,45.5,47.9,32.2,20.3,58,31,9,30.03,29.84,30,7,0,0.00
2013-6-4,88.7,70.0,45.3,34.2,23.1,12.7,46,21,7,30.05,29.87,17,5,0,0.00
2013-6-5,85.1,67.2,52.5,43.7,32.4,23.3,42,29,12,30.05,29.92,27,10,0,0.00
2013-6-6,85.1,61.7,45.0,44.3,37.6,30.5,60,43,14,30.09,29.97,24,8,0,0.04
2013-6-7,82.4,63.3,44.8,48.9,40.0,32.7,75,45,19,30.13,29.91,21,6,0,0.01
2013-6-8,89.8,71.8,50.0,45.2,39.1,31.5,57,33,13,29.99,29.83,24,10,0,0.00
2013-6-9,93.6,75.1,51.8,49.0,37.3,-21.4,65,34,1,30.11,29.95,22,7,0,0.00
2013-6-10,98.6,78.5,54.0,52.4,35.2,18.0,61,27,6,30.12,29.95,21,6,0,0.00
2013-6-11,94.1,76.9,56.1,36.2,13.8,-28.7,35,14,1,30.14,29.98,23,9,0,0.00
2013-6-12,98.6,76.4,50.7,36.4,17.2,-20.4,30,14,1,30.20,30.03,17,5,0,0.00
2013-6-13,90.9,71.4,56.8,49.9,38.0,27.3,66,32,16,30.24,30.07,26,8,0,0.07
2013-6-14,88.5,68.6,54.0,50.6,43.5,36.4,67,43,21,30.16,29.93,12,4,0,0.00
2013-6-15,93.2,71.5,46.4,50.1,33.7,12.9,74,34,6,30.16,29.95,22,7,0,0.00
2013-6-16,88.9,72.7,56.1,44.1,35.2,26.9,48,28,12,30.17,29.99,21,6,0,0.00
2013-6-17,87.8,70.6,50.7,47.0,36.4,24.4,56,33,11,30.18,30.00,26,8,0,0.01
2013-6-18,86.9,71.4,57.9,50.3,42.5,31.1,63,39,15,30.19,29.93,29,9,0,0.04
2013-6-19,90.7,75.0,52.7,48.0,17.0,-25.2,62,24,1,30.02,29.82,23,8,0,0.00
2013-6-20,91.6,79.8,64.0,10.6,-17.3,-32.5,12,3,1,29.98,29.89,21,9,0,0.00
2013-6-21,90.1,71.4,49.1,38.6,12.6,-27.1,50,19,1,30.11,29.91,22,7,0,0.00
2013-6-22,89.1,71.4,50.2,29.6,6.9,-28.1,27,11,1,30.06,29.87,29,8,0,0.00
2013-6-23,88.9,71.7,46.0,23.3,-0.6,-29.1,27,10,1,30.03,29.85,23,8,0,0.00
2013-6-24,87.4,71.6,49.3,26.8,2.6,-34.3,26,10,1,30.04,29.88,23,8,0,0.00
2013-6-25,90.1,70.2,46.0,29.3,16.3,2.2,28,14,6,30.11,29.96,24,8,0,0.00
2013-6-26,101.3,77.2,49.8,37.9,23.3,-20.0,45,19,1,30.19,30.03,20,5,0,0.00
2013-6-27,99.1,77.8,57.6,37.4,30.9,22.1,37,20,7,30.27,30.14,20,4,0,0.01
2013-6-28,94.1,74.2,58.8,49.3,44.1,31.7,52,36,17,30.34,30.24,21,7,0,0.00
2013-6-29,94.6,70.4,50.7,53.6,43.4,36.1,64,42,13,30.30,30.13,15,4,0,0.11
2013-6-30,92.7,67.4,48.7,53.7,45.8,36.6,89,52,17,30.30,30.05,17,4,0,0.76
2013-7-1,77.7,63.9,48.7,55.6,50.4,46.2,92,65,38,30.31,30.13,20,6,0,0.02
2013-7-2,86.2,65.5,51.1,54.5,49.4,38.9,89,61,19,30.32,30.05,18,4,0,0.01
2013-7-3,85.3,65.9,51.8,55.8,47.7,35.5,87,57,17,30.21,29.95,14,3,0,0.06
2013-7-4,89.2,69.7,48.4,51.1,43.8,37.9,80,44,18,30.09,29.92,20,5,0,0.00
2013-7-5,90.3,69.6,57.2,56.1,49.7,42.9,84,55,20,30.07,29.87,11,3,0,0.31
2013-7-6,85.6,65.6,52.5,59.2,53.2,49.0,91,67,32,30.11,29.96,13,2,0,0.22
2013-7-7,89.2,72.7,55.9,56.8,52.7,48.7,83,52,25,30.14,30.01,14,3,0,0.00
2013-7-8,90.5,71.4,61.3,56.6,51.9,44.9,74,53,23,30.24,30.12,13,3,0,0.00
2013-7-9,92.3,71.2,55.4,56.3,51.3,44.8,79,53,20,30.29,30.15,16,4,0,0.00
2013-7-10,92.1,72.4,60.6,55.1,50.7,47.2,66,48,23,30.28,30.16,14,4,0,0.00
2013-7-11,90.0,72.5,58.1,57.9,52.2,47.7,70,51,27,30.25,30.00,12,3,0,0.00
2013-7-12,92.3,69.8,57.4,58.5,53.5,48.8,83,59,25,30.15,30.04,10,3,0,0.53
2013-7-13,84.4,70.6,55.0,61.1,54.6,50.1,86,60,35,30.20,30.09,14,2,0,0.10
2013-7-14,89.2,67.4,53.8,58.7,54.0,50.2,88,65,28,30.20,30.04,23,5,0,0.09
2013-7-15,70.7,61.5,53.6,56.8,54.1,49.7,92,78,50,30.20,30.08,14,3,0,0.29
2013-7-16,74.5,61.4,49.3,54.3,48.5,44.4,87,64,43,30.30,30.15,12,4,0,0.00
2013-7-17,78.4,65.7,48.0,53.4,48.8,43.4,84,56,36,30.37,30.23,11,4,0,0.00
2013-7-18,85.1,68.4,49.8,55.4,50.5,44.8,86,56,32,30.33,30.07,9,3,0,0.00
2013-7-19,86.2,65.2,53.2,57.1,52.4,47.2,88,66,32,30.22,30.07,18,6,0,0.51
2013-7-20,86.9,67.8,53.6,57.7,53.3,48.7,86,62,31,30.19,29.94,19,4,0,0.07
2013-7-21,87.3,69.8,57.0,57.6,51.5,43.5,84,55,27,30.11,29.99,14,4,0,0.00
2013-7-22,93.9,72.6,51.3,55.1,46.1,35.7,82,45,15,30.14,29.98,8,3,0,0.00
2013-7-23,91.9,72.5,57.0,53.9,47.7,39.4,65,43,19,30.16,30.06,12,3,0,0.00
2013-7-24,90.0,72.3,60.4,53.1,47.4,35.6,66,45,16,30.26,30.07,12,4,0,0.00
2013-7-25,88.0,71.3,53.1,56.5,51.8,46.1,79,53,24,30.27,30.06,19,5,0,0.03
2013-7-26,88.9,67.3,53.6,58.1,52.1,46.4,87,61,26,30.35,30.18,14,4,0,0.01
2013-7-27,85.5,69.1,50.0,55.9,50.5,45.7,86,56,27,30.35,30.02,10,3,0,0.11
2013-7-28,82.4,64.6,55.8,60.0,55.3,52.2,89,73,43,30.15,29.98,8,2,0,0.38
2013-7-29,84.6,66.0,50.0,59.9,51.5,46.9,92,65,28,30.21,30.05,11,3,0,0.00
2013-7-30,89.4,69.5,49.8,55.0,46.2,38.4,85,49,17,30.35,30.19,7,3,0,0.00
2013-7-31,92.7,73.4,52.3,53.4,44.5,36.3,70,42,15,30.38,30.16,11,4,0,0.00
2013-8-1,84.4,69.8,56.5,55.8,51.9,47.1,89,56,32,30.30,30.12,14,4,0,0.06
2013-8-2,88.9,69.2,53.6,60.4,53.7,48.9,92,63,26,30.23,30.03,12,3,0,0.55
2013-8-3,84.0,70.7,56.1,60.4,55.7,51.0,92,63,35,30.24,30.08,9,3,0,0.09
2013-8-4,87.8,72.7,55.8,59.0,53.9,46.2,84,54,28,30.29,30.10,11,4,0,0.00
2013-8-5,87.1,69.5,55.8,59.8,53.5,47.5,89,61,26,30.30,30.03,8,3,0,0.07
2013-8-6,89.6,69.8,54.7,57.2,50.7,45.0,84,55,22,30.17,30.03,14,4,0,0.06
2013-8-7,78.8,62.9,51.4,57.9,52.6,47.4,89,71,38,30.14,30.01,9,3,0,0.56
2013-8-8,75.9,59.6,47.3,56.4,50.7,44.8,93,75,43,30.19,30.02,14,3,0,0.08
2013-8-9,77.9,63.2,45.5,53.2,47.0,38.0,91,60,24,30.28,30.14,10,3,0,0.00
2013-8-10,83.3,64.3,52.0,53.2,48.9,37.1,86,61,20,30.38,30.17,11,4,0,0.15
2013-8-11,83.1,64.4,46.9,53.0,47.3,40.5,90,59,23,30.32,30.11,10,3,0,0.00
2013-8-12,77.7,66.1,54.5,58.1,51.8,45.8,75,61,40,30.25,30.13,10,4,0,0.01
2013-8-13,82.4,65.5,49.3,58.9,50.9,46.2,91,63,29,30.28,30.15,12,3,0,0.61
2013-8-14,82.9,67.4,51.3,57.0,49.5,41.6,86,56,26,30.29,30.11,16,4,0,0.07
2013-8-15,87.4,70.4,51.4,53.2,43.8,27.6,79,44,12,30.27,30.10,12,4,0,0.00
2013-8-16,90.0,74.1,55.0,49.0,40.6,20.0,62,34,8,30.28,30.11,14,4,0,0.00
2013-8-17,91.8,74.0,56.1,48.8,41.6,32.1,58,34,13,30.28,30.07,10,4,0,0.00
2013-8-18,89.2,68.0,52.9,54.9,46.3,40.4,69,49,20,30.24,30.10,12,3,0,0.03
2013-8-19,91.4,69.1,50.7,54.1,49.2,45.3,82,52,21,30.24,30.10,16,3,0,0.00
2013-8-20,88.5,66.9,50.0,60.0,50.4,43.7,81,58,23,30.21,30.07,14,3,0,0.12
2013-8-21,89.4,68.8,51.4,57.3,51.5,46.6,86,57,26,30.24,30.08,9,3,0,0.05
2013-8-22,89.2,67.2,49.8,58.1,51.8,45.8,87,61,27,30.27,30.09,18,4,0,0.52
2013-8-23,83.8,66.7,47.5,54.5,48.6,42.8,86,57,27,30.23,30.03,8,2,0,0.00
2013-8-24,81.1,63.8,51.3,57.1,51.5,45.5,85,66,37,30.26,30.13,8,2,0,0.06
2013-8-25,82.4,64.9,55.8,57.4,54.2,49.7,84,70,41,30.33,30.20,14,3,0,0.34
2013-8-26,83.3,66.7,50.4,59.2,53.0,47.4,90,64,35,30.34,30.17,10,3,0,0.00
2013-8-27,88.9,68.6,48.7,56.0,50.6,45.0,87,57,27,30.27,30.06,8,3,0,0.00
2013-8-28,89.1,69.6,50.5,58.9,48.7,43.6,78,51,22,30.23,30.07,20,3,0,0.00
2013-8-29,90.3,68.6,50.7,53.7,49.3,45.4,82,54,25,30.29,30.13,9,2,0,0.00
2013-8-30,93.9,68.4,50.9,55.8,47.9,39.2,82,53,15,30.29,30.10,8,2,0,0.00
2013-8-31,92.7,71.6,49.8,54.0,47.3,42.6,79,46,20,30.20,30.01,15,3,0,0.00
2013-9-1,89.8,70.7,61.3,55.7,51.7,45.4,76,53,23,30.25,30.09,13,6,0,0.00
2013-9-2,89.2,69.9,55.2,56.9,51.9,47.6,76,55,26,30.27,30.10,14,4,0,0.00
2013-9-3,86.5,66.8,50.0,56.6,50.9,46.0,88,59,32,30.27,30.13,9,3,0,0.00
2013-9-4,91.8,69.8,48.7,56.0,46.2,39.8,88,49,20,30.32,30.15,8,2,0,0.00
2013-9-5,89.8,70.3,48.7,47.1,40.5,35.4,69,38,19,30.34,30.17,14,3,0,0.00
2013-9-6,90.7,70.1,47.5,45.3,39.1,35.4,65,36,17,30.32,30.08,10,3,0,0.00
2013-9-7,89.2,68.5,48.6,49.8,42.5,35.8,63,41,20,30.25,30.05,8,3,0,0.00
2013-9-8,86.9,68.5,47.3,53.2,45.2,38.4,73,46,23,30.18,29.97,9,3,0,0.00
2013-9-9,83.7,67.3,50.4,53.3,47.6,43.4,78,52,26,30.06,29.90,17,3,0,0.00
2013-9-10,76.3,61.4,50.4,56.9,49.2,41.6,85,66,39,30.15,30.01,9,3,0,0.15
2013-9-11,75.7,62.6,55.2,57.8,54.5,51.6,93,76,50,30.18,30.08,14,3,0,0.45
2013-9-12,65.7,59.4,52.7,59.0,54.1,48.6,91,83,73,30.24,30.13,12,2,0,0.30
2013-9-13,61.2,56.2,52.9,54.7,52.6,49.7,93,88,76,30.17,30.04,8,2,0,1.40
2013-9-14,68.4,57.1,50.7,56.6,51.6,46.7,93,83,62,30.09,29.96,14,2,0,0.60
2013-9-15,71.2,58.1,48.9,55.5,50.6,45.8,93,77,53,30.21,30.06,14,3,0,0.40
2013-9-16,74.1,60.9,49.3,55.9,51.1,46.4,91,72,49,30.26,30.11,10,3,0,0.00
2013-9-17,76.3,62.0,49.1,56.3,50.9,45.9,91,70,43,30.20,29.98,10,2,0,0.00
2013-9-18,73.8,59.3,52.2,59.3,51.7,46.6,92,77,56,30.08,29.93,5,2,0,0.08
2013-9-19,75.2,56.5,46.8,54.4,47.3,42.9,94,75,33,30.08,29.96,11,3,0,0.15
2013-9-20,76.3,62.4,49.6,50.2,45.4,38.9,78,57,28,30.17,30.02,16,4,0,0.00
2013-9-21,77.7,59.8,45.3,55.8,46.5,41.9,91,65,29,30.16,29.93,8,2,0,0.00
2013-9-22,78.4,57.9,42.4,53.0,45.3,35.8,92,68,22,29.97,29.65,12,3,0,1.32
2013-9-23,67.5,51.0,38.5,43.9,39.3,35.1,92,67,39,30.13,29.73,12,4,0,0.00
2013-9-24,71.4,51.6,32.9,42.7,35.5,27.7,90,59,20,30.23,30.03,6,2,0,0.00
2013-9-25,74.5,56.6,38.3,45.2,38.8,30.0,76,54,32,30.04,29.75,14,3,0,0.00
2013-9-26,73.8,59.4,40.3,44.2,36.6,26.3,82,48,17,29.89,29.76,14,4,0,0.00
2013-9-27,65.8,52.2,33.6,47.9,40.2,30.2,87,65,41,30.05,29.78,10,3,0,0.14
2013-9-28,63.5,43.3,25.9,33.4,28.6,22.0,87,61,24,30.22,30.06,6,2,0,0.01
2013-9-29,70.3,50.2,28.9,37.0,28.3,23.1,85,49,19,30.22,30.03,11,2,0,0.00
2013-9-30,76.8,55.2,33.8,35.7,29.7,25.4,75,42,18,30.10,29.91,10,3,0,0.00
2013-10-1,79.0,56.5,35.8,39.9,34.9,28.9,76,48,21,30.08,29.94,7,2,0,0.00
2013-10-2,74.8,54.3,32.9,36.9,29.3,22.0,79,45,14,30.08,29.91,8,2,0,0.00
2013-10-3,71.4,52.8,32.5,39.2,28.2,23.1,74,43,17,29.96,29.74,11,4,0,0.00
2013-10-4,59.9,47.6,35.2,30.2,18.1,0.4,63,35,11,30.08,29.79,14,5,0,0.00
2013-10-5,56.5,41.4,23.5,21.5,17.6,12.0,65,40,22,30.24,30.06,9,4,0,0.00
2013-10-6,68.9,45.2,22.3,27.3,18.9,9.6,79,42,10,30.30,30.17,6,1,0,0.00
2013-10-7,72.5,49.2,27.1,30.5,22.4,16.6,66,39,15,30.28,30.07,7,2,0,0.00
2013-10-8,71.8,51.3,32.4,33.7,26.8,20.9,62,42,20,30.11,29.85,9,2,0,0.00
2013-10-9,70.7,54.3,35.1,36.8,29.2,21.1,70,42,16,29.96,29.84,18,4,0,0.00
2013-10-10,68.4,48.3,34.9,43.8,35.1,26.8,88,63,26,29.92,29.63,21,5,0,0.53
2013-10-11,53.4,40.4,28.0,36.7,30.3,24.0,86,68,51,30.05,29.88,8,3,0,0.00
2013-10-12,61.5,44.5,26.1,37.7,30.3,22.5,87,61,29,30.14,30.02,12,3,0,0.00
2013-10-13,69.1,51.8,31.5,45.8,37.3,27.2,85,61,32,30.18,29.94,14,3,0,0.02
2013-10-14,57.6,47.7,32.9,46.0,31.0,18.9,92,58,22,30.06,29.92,14,5,0,0.03
2013-10-15,59.4,41.6,24.1,33.2,27.0,19.0,85,59,33,30.08,29.91,11,3,0,0.18
2013-10-16,51.3,37.5,29.5,39.2,29.7,22.9,90,75,43,30.07,29.97,8,2,0,0.40
2013-10-17,56.8,38.5,22.5,32.6,24.1,17.9,86,60,25,30.08,29.88,7,2,0,0.00
2013-10-18,52.9,37.5,23.7,28.6,20.2,13.3,76,53,22,30.10,29.90,10,2,0,0.00
2013-10-19,56.8,30.1,19.9,27.6,19.0,14.7,82,66,23,30.15,29.97,6,1,0,0.00
2013-10-20,61.7,43.5,23.2,30.1,22.7,16.5,79,48,20,30.01,29.82,11,3,0,0.00
2013-10-21,57.6,44.9,31.8,34.6,28.5,22.8,80,55,31,30.15,29.94,16,4,0,0.00
2013-10-22,63.9,42.4,23.5,31.4,23.5,17.8,86,53,17,30.24,30.12,6,2,0,0.00
2013-10-23,67.5,44.8,24.3,30.3,22.7,16.8,78,47,15,30.22,30.05,6,2,0,0.00
2013-10-24,68.2,50.3,28.4,32.3,27.1,21.4,76,44,19,30.23,30.09,11,3,0,0.00
2013-10-25,59.9,48.3,40.5,45.5,39.0,29.6,90,72,50,30.25,30.07,9,3,0,0.42
2013-10-26,61.0,46.0,33.3,41.4,35.7,29.4,91,70,42,30.30,30.17,11,2,0,0.00
2013-10-27,59.9,43.4,28.8,40.7,32.5,25.4,90,68,41,30.24,29.89,8,2,0,0.00
2013-10-28,61.3,45.0,30.2,42.1,29.9,25.3,87,59,28,29.94,29.82,10,3,0,0.00
2013-10-29,60.6,48.4,31.3,35.4,26.7,23.0,76,46,25,29.98,29.78,17,6,0,0.01
2013-10-30,50.5,39.2,31.6,36.7,32.1,28.7,89,77,50,29.92,29.75,11,3,0,0.26
2013-10-31,48.4,34.7,23.2,36.4,26.4,19.6,88,72,53,29.99,29.80,16,4,0,0.43
2013-11-1,51.8,35.4,21.0,29.9,24.2,16.4,86,66,39,30.23,29.96,8,2,0,0.00
2013-11-2,57.6,37.8,23.0,32.7,26.0,18.9,85,65,34,30.27,29.99,5,2,0,0.00
2013-11-3,54.5,40.5,29.7,38.5,29.4,22.5,79,65,47,30.00,29.70,9,3,0,0.00
2013-11-4,57.7,42.5,25.3,36.2,27.3,19.8,88,60,23,29.88,29.75,11,4,0,0.41
2013-11-5,45.5,35.8,25.9,36.4,28.3,18.4,90,75,52,30.11,29.73,10,4,0,0.55
2013-11-6,45.9,30.8,16.3,24.5,19.3,11.2,81,64,38,30.36,30.13,9,2,0,0.00
2013-11-7,55.4,35.0,20.3,32.2,23.4,16.0,85,65,33,30.42,30.20,6,1,0,0.00
2013-11-8,58.8,44.1,25.7,29.0,24.9,19.4,78,49,30,30.21,29.97,8,3,0,0.00
2013-11-9,61.3,40.1,22.1,31.2,23.4,16.9,82,55,23,30.21,30.07,5,2,0,0.00
2013-11-10,64.2,40.9,23.2,31.3,23.3,17.1,78,54,21,30.30,30.17,5,2,0,0.00
2013-11-11,67.3,44.2,21.6,33.2,21.7,14.7,86,47,14,30.37,30.22,10,2,0,0.00
2013-11-12,62.8,40.1,23.2,31.8,24.0,16.8,82,56,26,30.53,30.36,7,2,0,0.00
2013-11-13,62.4,38.4,19.8,35.8,25.8,15.8,88,65,25,30.48,30.06,7,2,0,0.00
2013-11-14,58.8,37.7,23.2,37.9,27.2,19.2,87,68,37,30.07,29.87,6,2,0,0.00
2013-11-15,61.5,39.0,22.1,36.9,27.8,16.9,87,68,28,29.88,29.59,14,3,0,0.09
2013-11-16,47.1,41.5,37.2,38.0,33.4,29.3,87,73,58,29.67,29.53,14,5,0,0.07
2013-11-17,55.0,42.3,30.9,34.1,28.9,23.0,74,60,43,30.12,29.65,14,6,0,0.00
2013-11-18,56.5,35.2,21.2,32.0,23.1,16.0,82,63,36,30.20,30.06,5,1,0,0.00
2013-11-19,61.2,38.2,20.3,36.7,25.8,15.4,83,64,37,30.08,29.80,8,2,0,0.00
2013-11-20,53.8,38.6,26.8,34.2,29.4,21.5,89,71,44,29.86,29.75,7,2,0,0.04
2013-11-21,56.7,42.5,35.6,42.1,36.4,33.0,92,80,50,30.06,29.83,8,2,0,0.21
2013-11-22,39.6,31.8,27.5,36.0,27.5,23.7,90,84,73,30.25,30.07,10,3,0,0.33
2013-11-23,35.4,30.1,24.3,25.9,23.1,20.4,89,75,63,30.29,30.15,22,9,0,0.01
2013-11-24,36.7,22.4,15.3,23.7,16.5,9.7,86,78,58,30.21,29.89,5,1,0,0.00
2013-11-25,45.0,26.8,14.4,28.9,18.9,10.2,85,73,50,30.20,29.87,7,2,0,0.44
2013-11-26,55.8,26.5,8.1,30.2,16.6,3.3,87,70,35,30.32,30.19,4,1,0,0.05
2013-11-27,50.2,23.1,7.2,27.4,14.1,2.1,86,71,41,30.29,30.10,4,1,0,0.00
2013-11-28,52.0,23.8,5.9,28.5,13.8,0.5,82,68,40,30.21,30.09,3,0,0,0.00
2013-11-29,57.6,26.0,8.1,30.8,15.7,2.4,86,68,36,30.27,30.16,4,1,0,0.00
2013-11-30,53.6,26.5,9.5,30.0,16.5,4.3,82,68,40,30.28,30.13,4,1,0,0.00
2013-12-1,51.1,29.2,14.7,30.0,19.5,10.2,83,69,44,30.22,30.08,5,2,0,0.00
2013-12-2,54.5,32.6,16.2,31.8,21.7,12.5,86,66,39,30.09,29.72,5,2,0,0.00
2013-12-3,57.2,38.3,23.5,29.9,22.6,16.6,75,55,32,29.74,29.48,10,3,0,0.00
2013-12-4,44.2,36.7,27.5,27.4,22.8,18.5,73,58,43,29.71,29.41,18,6,0,0.00
2013-12-5,31.5,22.5,7.0,23.9,16.4,1.9,83,77,68,29.74,29.62,6,1,0,0.00
2013-12-6,34.0,17.8,7.9,18.7,8.7,0.5,82,69,45,29.95,29.73,8,2,0,0.01
2013-12-7,36.3,19.9,5.0,21.8,11.5,-2.3,84,70,53,29.94,29.58,14,4,0,0.00
2013-12-8,28.4,21.0,10.9,19.0,8.6,-2.7,83,60,32,29.80,29.46,14,6,0,0.01
2013-12-9,31.3,13.3,-5.6,14.3,0.8,-13.7,78,59,32,30.25,29.79,14,3,0,0.00
2013-12-10,39.2,11.3,-9.9,7.2,-3.4,-17.7,73,55,24,30.28,30.06,3,1,0,0.00
2013-12-11,44.8,15.9,-4.5,15.2,1.8,-11.8,74,57,26,30.41,30.16,3,0,0,0.00
2013-12-12,42.4,17.5,-1.7,16.7,5.3,-7.9,77,61,33,30.42,29.99,5,0,0,0.00
2013-12-13,45.3,23.8,8.4,25.5,13.4,2.4,81,66,43,29.99,29.79,5,1,0,0.00
2013-12-14,45.1,22.4,6.8,21.5,10.8,1.4,82,64,34,30.28,29.96,4,1,0,0.00
2013-12-15,48.0,23.1,5.4,21.7,11.3,-0.5,80,63,34,30.29,30.20,4,1,0,0.00
2013-12-16,54.3,26.7,9.7,25.0,14.7,4.5,82,64,31,30.33,30.21,4,1,0,0.00
2013-12-17,50.2,26.6,9.3,24.6,15.0,4.1,83,65,35,30.39,30.24,4,1,0,0.00
2013-12-18,54.1,27.9,10.6,29.9,15.8,5.1,81,64,28,30.24,29.81,4,1,0,0.00
2013-12-19,55.8,34.0,19.8,28.5,19.8,12.0,73,58,33,29.81,29.58,8,2,0,0.00
2013-12-20,51.1,31.7,21.0,26.6,19.9,14.7,77,63,35,29.67,29.50,7,2,0,0.00
2013-12-21,37.2,26.0,14.2,23.9,18.3,9.7,84,73,53,29.65,29.36,9,3,0,0.00
2013-12-22,39.9,25.1,14.4,19.0,14.7,8.2,83,66,35,30.11,29.65,6,2,0,0.00
2013-12-23,45.1,22.4,6.6,20.5,10.0,0.9,80,61,30,30.30,30.10,4,1,0,0.00
2013-12-24,47.7,25.5,7.7,25.0,13.8,1.7,81,63,40,30.27,30.03,7,2,0,0.00
2013-12-25,41.9,23.5,8.6,17.5,9.6,2.6,80,58,29,30.32,30.16,6,2,0,0.00
2013-12-26,45.1,21.6,4.8,15.7,7.3,-2.0,74,57,25,30.31,30.15,4,1,0,0.00
2013-12-27,50.9,24.7,7.9,19.9,10.6,1.9,77,59,24,30.32,30.13,7,1,0,0.00
2013-12-28,50.4,24.6,7.3,21.9,12.5,1.4,81,63,31,30.12,29.79,4,1,0,0.00
2013-12-29,37.0,26.0,16.0,25.7,19.1,10.6,83,75,59,30.04,29.83,5,1,0,0.04
2013-12-30,45.3,21.6,6.6,24.5,12.2,1.4,83,69,40,30.24,30.03,5,1,0,0.03
2013-12-31,52.9,23.4,5.7,24.6,12.0,-0.2,81,64,33,30.23,30.01,7,1,0,0.00
2014-1-1,49.3,29.1,15.3,26.6,15.9,8.8,81,61,34,30.20,29.95,10,2,0,0.00
2014-1-2,52.0,25.8,8.2,22.6,11.6,1.9,79,58,24,30.27,30.10,4,1,0,0.00